sensor_id;sensor_type;location;lat;lon;timestamp;pressure;altitude;pressure_sealevel;temperature;humidity
75551;BME280;65071;53.082;18.218;2023-04-24T00:00:44;100273.70;;;13.92;78.47
75551;BME280;65071;53.082;18.218;2023-04-24T00:03:24;100278.89;;;13.90;77.94
75551;BME280;65071;53.082;18.218;2023-04-24T00:05:50;100277.02;;;13.90;78.17
75551;BME280;65071;53.082;18.218;2023-04-24T00:08:17;100272.00;;;13.90;77.78
75551;BME280;65071;53.082;18.218;2023-04-24T00:10:44;100265.94;;;13.89;77.19
75551;BME280;65071;53.082;18.218;2023-04-24T00:13:11;100259.56;;;13.90;77.44
75551;BME280;65071;53.082;18.218;2023-04-24T00:15:37;100261.50;;;13.88;78.24
75551;BME280;65071;53.082;18.218;2023-04-24T00:18:04;100264.77;;;13.88;77.58
75551;BME280;65071;53.082;18.218;2023-04-24T00:20:31;100265.17;;;13.88;77.90
75551;BME280;65071;53.082;18.218;2023-04-24T00:22:58;100260.91;;;13.87;77.70
75551;BME280;65071;53.082;18.218;2023-04-24T00:25:25;100254.88;;;13.85;78.13
75551;BME280;65071;53.082;18.218;2023-04-24T00:27:51;100258.86;;;13.84;78.92
75551;BME280;65071;53.082;18.218;2023-04-24T00:30:18;100253.52;;;13.81;78.37
75551;BME280;65071;53.082;18.218;2023-04-24T00:32:45;100252.09;;;13.80;78.29
75551;BME280;65071;53.082;18.218;2023-04-24T00:35:11;100246.36;;;13.79;77.84
75551;BME280;65071;53.082;18.218;2023-04-24T00:37:38;100244.64;;;13.80;77.81
75551;BME280;65071;53.082;18.218;2023-04-24T00:40:05;100241.24;;;13.81;77.59
75551;BME280;65071;53.082;18.218;2023-04-24T00:42:32;100237.27;;;13.83;77.43
75551;BME280;65071;53.082;18.218;2023-04-24T00:45:00;100238.68;;;13.84;77.68
75551;BME280;65071;53.082;18.218;2023-04-24T00:47:27;100232.08;;;13.84;77.67
75551;BME280;65071;53.082;18.218;2023-04-24T00:49:54;100229.91;;;13.82;77.92
75551;BME280;65071;53.082;18.218;2023-04-24T00:52:21;100223.44;;;13.81;77.49
75551;BME280;65071;53.082;18.218;2023-04-24T00:54:50;100224.45;;;13.81;77.27
75551;BME280;65071;53.082;18.218;2023-04-24T00:57:17;100227.00;;;13.82;77.08
75551;BME280;65071;53.082;18.218;2023-04-24T00:59:44;100232.84;;;13.85;77.15
75551;BME280;65071;53.082;18.218;2023-04-24T01:02:11;100233.23;;;13.86;77.37
75551;BME280;65071;53.082;18.218;2023-04-24T01:04:38;100238.80;;;13.85;77.38
75551;BME280;65071;53.082;18.218;2023-04-24T01:07:05;100239.80;;;13.84;77.11
75551;BME280;65071;53.082;18.218;2023-04-24T01:09:39;100235.46;;;13.84;77.38
75551;BME280;65071;53.082;18.218;2023-04-24T01:12:07;100228.13;;;13.82;77.40
75551;BME280;65071;53.082;18.218;2023-04-24T01:14:33;100226.45;;;13.81;77.44
75551;BME280;65071;53.082;18.218;2023-04-24T01:17:00;100225.36;;;13.81;77.44
75551;BME280;65071;53.082;18.218;2023-04-24T01:19:27;100220.98;;;13.78;77.37
75551;BME280;65071;53.082;18.218;2023-04-24T01:21:58;100216.49;;;13.77;77.18
75551;BME280;65071;53.082;18.218;2023-04-24T01:24:25;100217.13;;;13.77;77.29
75551;BME280;65071;53.082;18.218;2023-04-24T01:26:51;100218.52;;;13.78;77.14
75551;BME280;65071;53.082;18.218;2023-04-24T01:29:19;100215.48;;;13.79;76.99
75551;BME280;65071;53.082;18.218;2023-04-24T01:31:46;100218.98;;;13.82;77.05
75551;BME280;65071;53.082;18.218;2023-04-24T01:34:13;100212.67;;;13.83;77.07
75551;BME280;65071;53.082;18.218;2023-04-24T01:36:41;100212.64;;;13.84;77.10
75551;BME280;65071;53.082;18.218;2023-04-24T01:39:08;100210.52;;;13.85;76.98
75551;BME280;65071;53.082;18.218;2023-04-24T01:41:34;100213.02;;;13.87;77.03
75551;BME280;65071;53.082;18.218;2023-04-24T01:44:01;100213.83;;;13.88;76.97
75551;BME280;65071;53.082;18.218;2023-04-24T01:46:28;100215.88;;;13.86;77.77
75551;BME280;65071;53.082;18.218;2023-04-24T01:48:59;100217.95;;;13.84;77.31
75551;BME280;65071;53.082;18.218;2023-04-24T01:51:26;100213.34;;;13.80;78.05
75551;BME280;65071;53.082;18.218;2023-04-24T01:53:53;100210.85;;;13.76;78.23
75551;BME280;65071;53.082;18.218;2023-04-24T01:56:20;100211.23;;;13.72;77.86
75551;BME280;65071;53.082;18.218;2023-04-24T01:58:49;100210.27;;;13.73;77.34
75551;BME280;65071;53.082;18.218;2023-04-24T02:01:20;100207.73;;;13.74;77.56
75551;BME280;65071;53.082;18.218;2023-04-24T02:03:47;100204.41;;;13.75;77.55
75551;BME280;65071;53.082;18.218;2023-04-24T02:06:14;100203.38;;;13.73;78.08
75551;BME280;65071;53.082;18.218;2023-04-24T02:08:41;100207.16;;;13.70;77.99
75551;BME280;65071;53.082;18.218;2023-04-24T02:11:10;100206.73;;;13.68;77.85
75551;BME280;65071;53.082;18.218;2023-04-24T02:13:37;100209.27;;;13.65;78.11
75551;BME280;65071;53.082;18.218;2023-04-24T02:16:03;100204.09;;;13.64;77.54
75551;BME280;65071;53.082;18.218;2023-04-24T02:18:30;100200.83;;;13.64;77.44
75551;BME280;65071;53.082;18.218;2023-04-24T02:20:57;100199.08;;;13.64;78.15
75551;BME280;65071;53.082;18.218;2023-04-24T02:23:23;100197.10;;;13.62;78.02
75551;BME280;65071;53.082;18.218;2023-04-24T02:25:50;100196.73;;;13.61;77.73
75551;BME280;65071;53.082;18.218;2023-04-24T02:28:17;100191.35;;;13.62;77.65
75551;BME280;65071;53.082;18.218;2023-04-24T02:30:44;100186.65;;;13.61;78.49
75551;BME280;65071;53.082;18.218;2023-04-24T02:33:11;100180.48;;;13.58;78.10
75551;BME280;65071;53.082;18.218;2023-04-24T02:35:37;100176.33;;;13.56;77.63
75551;BME280;65071;53.082;18.218;2023-04-24T02:38:04;100178.59;;;13.57;77.39
75551;BME280;65071;53.082;18.218;2023-04-24T02:40:31;100178.71;;;13.59;77.36
75551;BME280;65071;53.082;18.218;2023-04-24T02:42:58;100178.38;;;13.60;78.05
75551;BME280;65071;53.082;18.218;2023-04-24T02:45:24;100176.60;;;13.58;77.64
75551;BME280;65071;53.082;18.218;2023-04-24T02:47:51;100172.29;;;13.60;77.27
75551;BME280;65071;53.082;18.218;2023-04-24T02:50:17;100172.08;;;13.61;77.38
75551;BME280;65071;53.082;18.218;2023-04-24T02:52:44;100169.45;;;13.62;77.30
75551;BME280;65071;53.082;18.218;2023-04-24T02:55:10;100169.80;;;13.62;77.23
75551;BME280;65071;53.082;18.218;2023-04-24T02:57:37;100168.30;;;13.63;77.35
75551;BME280;65071;53.082;18.218;2023-04-24T03:00:04;100168.79;;;13.62;77.25
75551;BME280;65071;53.082;18.218;2023-04-24T03:02:33;100168.84;;;13.64;77.12
75551;BME280;65071;53.082;18.218;2023-04-24T03:05:00;100166.77;;;13.65;77.36
75551;BME280;65071;53.082;18.218;2023-04-24T03:07:27;100168.95;;;13.65;77.14
75551;BME280;65071;53.082;18.218;2023-04-24T03:09:53;100168.06;;;13.66;77.07
75551;BME280;65071;53.082;18.218;2023-04-24T03:12:20;100169.45;;;13.68;77.10
75551;BME280;65071;53.082;18.218;2023-04-24T03:14:49;100169.30;;;13.66;77.50
75551;BME280;65071;53.082;18.218;2023-04-24T03:17:16;100168.50;;;13.63;77.68
75551;BME280;65071;53.082;18.218;2023-04-24T03:19:43;100167.79;;;13.62;77.19
75551;BME280;65071;53.082;18.218;2023-04-24T03:22:10;100172.27;;;13.64;77.15
75551;BME280;65071;53.082;18.218;2023-04-24T03:24:37;100174.52;;;13.67;76.92
75551;BME280;65071;53.082;18.218;2023-04-24T03:27:04;100173.13;;;13.69;76.82
75551;BME280;65071;53.082;18.218;2023-04-24T03:29:50;100173.36;;;13.70;77.00
75551;BME280;65071;53.082;18.218;2023-04-24T03:32:22;100174.89;;;13.71;77.03
75551;BME280;65071;53.082;18.218;2023-04-24T03:34:49;100175.14;;;13.72;76.89
75551;BME280;65071;53.082;18.218;2023-04-24T03:37:16;100176.40;;;13.73;76.83
75551;BME280;65071;53.082;18.218;2023-04-24T03:39:47;100174.13;;;13.74;76.99
75551;BME280;65071;53.082;18.218;2023-04-24T03:42:15;100175.34;;;13.72;77.19
75551;BME280;65071;53.082;18.218;2023-04-24T03:44:51;100178.07;;;13.70;77.27
75551;BME280;65071;53.082;18.218;2023-04-24T03:47:18;100181.42;;;13.69;76.82
75551;BME280;65071;53.082;18.218;2023-04-24T03:49:46;100177.77;;;13.69;77.01
75551;BME280;65071;53.082;18.218;2023-04-24T03:52:12;100180.02;;;13.72;77.04
75551;BME280;65071;53.082;18.218;2023-04-24T03:54:39;100182.95;;;13.73;76.85
75551;BME280;65071;53.082;18.218;2023-04-24T03:57:06;100183.02;;;13.75;77.15
75551;BME280;65071;53.082;18.218;2023-04-24T03:59:33;100175.92;;;13.74;77.48
75551;BME280;65071;53.082;18.218;2023-04-24T04:02:12;100175.68;;;13.75;77.02
75551;BME280;65071;53.082;18.218;2023-04-24T04:04:39;100172.45;;;13.76;76.97
75551;BME280;65071;53.082;18.218;2023-04-24T04:07:05;100172.00;;;13.78;76.92
75551;BME280;65071;53.082;18.218;2023-04-24T04:09:32;100168.02;;;13.78;77.25
75551;BME280;65071;53.082;18.218;2023-04-24T04:11:59;100166.30;;;13.78;77.49
75551;BME280;65071;53.082;18.218;2023-04-24T04:14:27;100166.17;;;13.79;77.33
75551;BME280;65071;53.082;18.218;2023-04-24T04:16:54;100162.19;;;13.77;78.91
75551;BME280;65071;53.082;18.218;2023-04-24T04:19:21;100158.17;;;13.75;78.06
75551;BME280;65071;53.082;18.218;2023-04-24T04:21:47;100157.30;;;13.73;78.46
75551;BME280;65071;53.082;18.218;2023-04-24T04:24:25;100159.80;;;13.70;78.23
75551;BME280;65071;53.082;18.218;2023-04-24T04:26:52;100161.77;;;13.70;78.11
75551;BME280;65071;53.082;18.218;2023-04-24T04:29:27;100162.13;;;13.72;78.10
75551;BME280;65071;53.082;18.218;2023-04-24T04:31:53;100154.72;;;13.73;77.92
75551;BME280;65071;53.082;18.218;2023-04-24T04:34:21;100156.73;;;13.74;78.71
75551;BME280;65071;53.082;18.218;2023-04-24T04:36:49;100159.52;;;13.74;78.82
75551;BME280;65071;53.082;18.218;2023-04-24T04:39:25;100161.45;;;13.74;78.42
75551;BME280;65071;53.082;18.218;2023-04-24T04:41:57;100159.92;;;13.80;78.06
75551;BME280;65071;53.082;18.218;2023-04-24T04:44:26;100155.02;;;13.84;78.19
75551;BME280;65071;53.082;18.218;2023-04-24T04:46:54;100155.45;;;13.85;78.36
75551;BME280;65071;53.082;18.218;2023-04-24T04:49:32;100149.06;;;13.85;77.86
75551;BME280;65071;53.082;18.218;2023-04-24T04:51:59;100145.68;;;13.91;77.92
75551;BME280;65071;53.082;18.218;2023-04-24T04:54:26;100141.77;;;14.00;77.89
75551;BME280;65071;53.082;18.218;2023-04-24T04:56:53;100140.35;;;14.04;77.57
75551;BME280;65071;53.082;18.218;2023-04-24T04:59:20;100139.55;;;14.08;77.76
75551;BME280;65071;53.082;18.218;2023-04-24T05:01:47;100141.27;;;14.14;77.72
75551;BME280;65071;53.082;18.218;2023-04-24T05:04:14;100143.93;;;14.20;77.43
75551;BME280;65071;53.082;18.218;2023-04-24T05:06:41;100137.39;;;14.26;77.15
75551;BME280;65071;53.082;18.218;2023-04-24T05:09:07;100136.41;;;14.36;77.00
75551;BME280;65071;53.082;18.218;2023-04-24T05:11:39;100132.08;;;14.44;76.94
75551;BME280;65071;53.082;18.218;2023-04-24T05:14:06;100128.27;;;14.53;76.61
75551;BME280;65071;53.082;18.218;2023-04-24T05:16:37;100129.62;;;14.75;76.22
75551;BME280;65071;53.082;18.218;2023-04-24T05:19:05;100127.46;;;14.89;75.75
75551;BME280;65071;53.082;18.218;2023-04-24T05:21:35;100127.27;;;14.93;75.88
75551;BME280;65071;53.082;18.218;2023-04-24T05:24:02;100126.51;;;14.96;75.66
75551;BME280;65071;53.082;18.218;2023-04-24T05:26:49;100127.77;;;15.00;75.47
75551;BME280;65071;53.082;18.218;2023-04-24T05:29:18;100125.95;;;15.01;75.03
75551;BME280;65071;53.082;18.218;2023-04-24T05:31:45;100123.42;;;15.07;75.23
75551;BME280;65071;53.082;18.218;2023-04-24T05:34:12;100117.96;;;15.15;75.10
75551;BME280;65071;53.082;18.218;2023-04-24T05:36:40;100123.64;;;15.24;74.64
75551;BME280;65071;53.082;18.218;2023-04-24T05:39:07;100123.67;;;15.25;74.19
75551;BME280;65071;53.082;18.218;2023-04-24T05:41:34;100119.85;;;15.28;73.88
75551;BME280;65071;53.082;18.218;2023-04-24T05:44:01;100119.83;;;15.30;73.82
75551;BME280;65071;53.082;18.218;2023-04-24T05:46:27;100120.18;;;15.33;73.99
75551;BME280;65071;53.082;18.218;2023-04-24T05:48:55;100123.94;;;15.43;73.86
75551;BME280;65071;53.082;18.218;2023-04-24T05:51:21;100125.41;;;15.55;73.47
75551;BME280;65071;53.082;18.218;2023-04-24T05:53:48;100122.95;;;15.66;73.12
75551;BME280;65071;53.082;18.218;2023-04-24T05:56:15;100119.73;;;15.79;73.31
75551;BME280;65071;53.082;18.218;2023-04-24T05:58:42;100115.62;;;15.95;72.63
75551;BME280;65071;53.082;18.218;2023-04-24T06:01:09;100110.77;;;16.12;72.69
75551;BME280;65071;53.082;18.218;2023-04-24T06:03:38;100111.69;;;16.23;71.57
75551;BME280;65071;53.082;18.218;2023-04-24T06:06:06;100111.69;;;16.38;71.55
75551;BME280;65071;53.082;18.218;2023-04-24T06:08:33;100118.67;;;16.58;70.76
75551;BME280;65071;53.082;18.218;2023-04-24T06:11:01;100121.27;;;16.84;70.84
75551;BME280;65071;53.082;18.218;2023-04-24T06:13:27;100119.96;;;17.08;70.57
75551;BME280;65071;53.082;18.218;2023-04-24T06:16:14;100113.77;;;17.30;69.63
75551;BME280;65071;53.082;18.218;2023-04-24T06:18:43;100112.09;;;17.37;68.33
75551;BME280;65071;53.082;18.218;2023-04-24T06:21:11;100113.73;;;17.35;68.05
75551;BME280;65071;53.082;18.218;2023-04-24T06:23:38;100110.09;;;17.28;67.29
75551;BME280;65071;53.082;18.218;2023-04-24T06:26:04;100113.45;;;17.25;67.76
75551;BME280;65071;53.082;18.218;2023-04-24T06:28:32;100117.05;;;17.27;68.25
75551;BME280;65071;53.082;18.218;2023-04-24T06:30:58;100112.02;;;17.34;68.46
75551;BME280;65071;53.082;18.218;2023-04-24T06:33:25;100114.94;;;17.39;67.59
75551;BME280;65071;53.082;18.218;2023-04-24T06:35:52;100110.32;;;17.50;68.20
75551;BME280;65071;53.082;18.218;2023-04-24T06:38:22;100104.08;;;17.63;67.77
75551;BME280;65071;53.082;18.218;2023-04-24T06:40:49;100104.27;;;17.73;66.78
75551;BME280;65071;53.082;18.218;2023-04-24T06:43:16;100096.05;;;17.81;66.77
75551;BME280;65071;53.082;18.218;2023-04-24T06:45:42;100091.73;;;17.91;66.86
75551;BME280;65071;53.082;18.218;2023-04-24T06:48:10;100089.94;;;17.87;65.72
75551;BME280;65071;53.082;18.218;2023-04-24T06:50:36;100091.67;;;17.85;65.60
75551;BME280;65071;53.082;18.218;2023-04-24T06:53:03;100091.63;;;17.85;65.71
75551;BME280;65071;53.082;18.218;2023-04-24T06:55:30;100087.19;;;17.83;65.75
75551;BME280;65071;53.082;18.218;2023-04-24T06:57:57;100084.98;;;17.88;65.70
75551;BME280;65071;53.082;18.218;2023-04-24T07:00:23;100085.50;;;17.94;65.76
75551;BME280;65071;53.082;18.218;2023-04-24T07:02:50;100086.21;;;17.93;63.87
75551;BME280;65071;53.082;18.218;2023-04-24T07:05:17;100081.96;;;17.88;64.33
75551;BME280;65071;53.082;18.218;2023-04-24T07:07:47;100083.16;;;17.91;64.56
75551;BME280;65071;53.082;18.218;2023-04-24T07:10:13;100086.36;;;17.90;64.23
75551;BME280;65071;53.082;18.218;2023-04-24T07:12:40;100084.14;;;17.79;63.31
75551;BME280;65071;53.082;18.218;2023-04-24T07:15:07;100084.77;;;17.80;64.11
75551;BME280;65071;53.082;18.218;2023-04-24T07:17:34;100083.96;;;17.89;64.55
75551;BME280;65071;53.082;18.218;2023-04-24T07:20:01;100079.81;;;17.99;64.63
75551;BME280;65071;53.082;18.218;2023-04-24T07:22:28;100077.27;;;18.13;63.33
75551;BME280;65071;53.082;18.218;2023-04-24T07:24:54;100069.94;;;18.28;62.65
75551;BME280;65071;53.082;18.218;2023-04-24T07:27:21;100068.80;;;18.35;61.11
75551;BME280;65071;53.082;18.218;2023-04-24T07:29:47;100072.27;;;18.41;61.53
75551;BME280;65071;53.082;18.218;2023-04-24T07:32:14;100077.88;;;18.43;60.33
75551;BME280;65071;53.082;18.218;2023-04-24T07:34:41;100075.10;;;18.37;60.29
75551;BME280;65071;53.082;18.218;2023-04-24T07:37:07;100076.27;;;18.39;60.51
75551;BME280;65071;53.082;18.218;2023-04-24T07:39:34;100071.33;;;18.36;60.04
75551;BME280;65071;53.082;18.218;2023-04-24T07:42:00;100070.39;;;18.32;59.86
75551;BME280;65071;53.082;18.218;2023-04-24T07:44:28;100069.00;;;18.32;60.50
75551;BME280;65071;53.082;18.218;2023-04-24T07:46:55;100064.51;;;18.32;60.93
75551;BME280;65071;53.082;18.218;2023-04-24T07:49:22;100067.69;;;18.34;60.76
75551;BME280;65071;53.082;18.218;2023-04-24T07:51:49;100066.30;;;18.33;60.65
75551;BME280;65071;53.082;18.218;2023-04-24T07:54:16;100065.61;;;18.37;61.26
75551;BME280;65071;53.082;18.218;2023-04-24T07:56:43;100071.30;;;18.42;61.08
75551;BME280;65071;53.082;18.218;2023-04-24T07:59:10;100071.79;;;18.48;61.08
75551;BME280;65071;53.082;18.218;2023-04-24T08:01:37;100069.68;;;18.49;60.80
75551;BME280;65071;53.082;18.218;2023-04-24T08:04:04;100070.55;;;18.51;60.47
75551;BME280;65071;53.082;18.218;2023-04-24T08:06:31;100070.50;;;18.51;60.40
75551;BME280;65071;53.082;18.218;2023-04-24T08:08:58;100070.69;;;18.49;59.32
75551;BME280;65071;53.082;18.218;2023-04-24T08:11:25;100073.23;;;18.48;59.32
75551;BME280;65071;53.082;18.218;2023-04-24T08:13:52;100068.72;;;18.48;58.68
75551;BME280;65071;53.082;18.218;2023-04-24T08:16:18;100068.03;;;18.50;58.81
75551;BME280;65071;53.082;18.218;2023-04-24T08:18:45;100067.12;;;18.56;58.35
75551;BME280;65071;53.082;18.218;2023-04-24T08:21:11;100068.70;;;18.57;58.07
75551;BME280;65071;53.082;18.218;2023-04-24T08:23:43;100074.38;;;18.57;58.01
75551;BME280;65071;53.082;18.218;2023-04-24T08:26:10;100071.30;;;18.57;57.69
75551;BME280;65071;53.082;18.218;2023-04-24T08:28:38;100070.58;;;18.63;58.00
75551;BME280;65071;53.082;18.218;2023-04-24T08:31:36;100067.30;;;18.69;57.54
75551;BME280;65071;53.082;18.218;2023-04-24T08:34:03;100066.21;;;18.84;57.56
75551;BME280;65071;53.082;18.218;2023-04-24T08:36:29;100063.13;;;19.00;57.20
75551;BME280;65071;53.082;18.218;2023-04-24T08:38:56;100062.88;;;19.12;56.83
75551;BME280;65071;53.082;18.218;2023-04-24T08:41:23;100065.57;;;19.21;56.39
75551;BME280;65071;53.082;18.218;2023-04-24T08:43:52;100065.89;;;19.32;55.97
75551;BME280;65071;53.082;18.218;2023-04-24T08:46:19;100066.93;;;19.47;56.52
75551;BME280;65071;53.082;18.218;2023-04-24T08:48:46;100065.48;;;19.64;55.91
75551;BME280;65071;53.082;18.218;2023-04-24T08:51:13;100064.97;;;19.82;55.61
75551;BME280;65071;53.082;18.218;2023-04-24T08:53:40;100072.38;;;19.93;54.34
75551;BME280;65071;53.082;18.218;2023-04-24T08:56:11;100076.39;;;20.00;54.60
75551;BME280;65071;53.082;18.218;2023-04-24T08:58:37;100074.06;;;20.04;54.82
75551;BME280;65071;53.082;18.218;2023-04-24T09:01:05;100072.27;;;19.97;53.51
75551;BME280;65071;53.082;18.218;2023-04-24T09:03:32;100072.16;;;19.86;53.80
75551;BME280;65071;53.082;18.218;2023-04-24T09:06:00;100076.74;;;19.76;53.84
75551;BME280;65071;53.082;18.218;2023-04-24T09:08:27;100077.72;;;19.68;54.50
75551;BME280;65071;53.082;18.218;2023-04-24T09:10:54;100072.58;;;19.61;54.92
75551;BME280;65071;53.082;18.218;2023-04-24T09:13:21;100076.31;;;19.56;55.14
75551;BME280;65071;53.082;18.218;2023-04-24T09:15:47;100072.95;;;19.55;55.73
75551;BME280;65071;53.082;18.218;2023-04-24T09:18:15;100074.32;;;19.57;55.76
75551;BME280;65071;53.082;18.218;2023-04-24T09:21:17;100075.44;;;19.55;55.91
75551;BME280;65071;53.082;18.218;2023-04-24T09:23:44;100079.29;;;19.41;56.40
75551;BME280;65071;53.082;18.218;2023-04-24T09:26:11;100076.05;;;19.31;56.90
75551;BME280;65071;53.082;18.218;2023-04-24T09:28:39;100076.35;;;19.26;57.29
75551;BME280;65071;53.082;18.218;2023-04-24T09:31:07;100069.08;;;19.25;57.62
75551;BME280;65071;53.082;18.218;2023-04-24T09:33:35;100067.58;;;19.28;58.40
75551;BME280;65071;53.082;18.218;2023-04-24T09:36:03;100068.86;;;19.31;58.53
75551;BME280;65071;53.082;18.218;2023-04-24T09:38:37;100065.70;;;19.34;58.52
75551;BME280;65071;53.082;18.218;2023-04-24T09:41:07;100066.64;;;19.34;57.40
75551;BME280;65071;53.082;18.218;2023-04-24T09:43:35;100057.45;;;19.42;57.23
75551;BME280;65071;53.082;18.218;2023-04-24T09:46:08;100052.70;;;19.55;56.97
75551;BME280;65071;53.082;18.218;2023-04-24T09:48:37;100039.34;;;19.63;55.44
75551;BME280;65071;53.082;18.218;2023-04-24T09:51:05;100037.20;;;19.68;55.54
75551;BME280;65071;53.082;18.218;2023-04-24T09:53:37;100037.06;;;19.80;54.49
75551;BME280;65071;53.082;18.218;2023-04-24T09:56:09;100039.21;;;19.96;53.69
75551;BME280;65071;53.082;18.218;2023-04-24T09:58:36;100032.30;;;20.11;53.04
75551;BME280;65071;53.082;18.218;2023-04-24T10:01:03;100032.05;;;20.31;53.04
75551;BME280;65071;53.082;18.218;2023-04-24T10:03:31;100032.73;;;20.52;52.82
75551;BME280;65071;53.082;18.218;2023-04-24T10:06:04;100024.38;;;20.73;51.73
75551;BME280;65071;53.082;18.218;2023-04-24T10:08:37;100019.40;;;20.85;50.07
75551;BME280;65071;53.082;18.218;2023-04-24T10:11:04;100016.69;;;20.91;49.73
75551;BME280;65071;53.082;18.218;2023-04-24T10:13:32;100015.73;;;21.05;50.67
75551;BME280;65071;53.082;18.218;2023-04-24T10:16:00;100012.16;;;21.16;49.84
75551;BME280;65071;53.082;18.218;2023-04-24T10:18:27;100015.69;;;21.21;49.64
75551;BME280;65071;53.082;18.218;2023-04-24T10:20:53;100013.27;;;21.22;49.13
75551;BME280;65071;53.082;18.218;2023-04-24T10:23:21;100018.33;;;21.20;49.34
75551;BME280;65071;53.082;18.218;2023-04-24T10:25:48;100026.33;;;21.12;48.97
75551;BME280;65071;53.082;18.218;2023-04-24T10:28:16;100032.39;;;21.11;49.16
75551;BME280;65071;53.082;18.218;2023-04-24T10:30:45;100026.99;;;21.17;49.24
75551;BME280;65071;53.082;18.218;2023-04-24T10:33:12;100030.64;;;21.25;48.83
75551;BME280;65071;53.082;18.218;2023-04-24T10:35:44;100037.09;;;21.21;48.91
75551;BME280;65071;53.082;18.218;2023-04-24T10:38:13;100036.05;;;21.24;48.91
75551;BME280;65071;53.082;18.218;2023-04-24T10:40:40;100036.61;;;21.22;48.39
75551;BME280;65071;53.082;18.218;2023-04-24T10:43:08;100037.33;;;21.22;48.90
75551;BME280;65071;53.082;18.218;2023-04-24T10:45:38;100044.95;;;21.32;48.43
75551;BME280;65071;53.082;18.218;2023-04-24T10:48:07;100041.98;;;21.39;48.83
75551;BME280;65071;53.082;18.218;2023-04-24T10:50:45;100038.02;;;21.43;48.55
75551;BME280;65071;53.082;18.218;2023-04-24T10:53:17;100032.42;;;21.61;48.71
75551;BME280;65071;53.082;18.218;2023-04-24T10:55:47;100031.95;;;21.83;48.63
75551;BME280;65071;53.082;18.218;2023-04-24T10:58:14;100033.37;;;21.92;48.18
75551;BME280;65071;53.082;18.218;2023-04-24T11:00:43;100031.71;;;21.94;47.28
75551;BME280;65071;53.082;18.218;2023-04-24T11:03:27;100037.52;;;21.86;47.00
75551;BME280;65071;53.082;18.218;2023-04-24T11:06:05;100038.91;;;21.86;47.05
75551;BME280;65071;53.082;18.218;2023-04-24T11:08:46;100042.33;;;21.92;46.75
75551;BME280;65071;53.082;18.218;2023-04-24T11:11:16;100042.60;;;21.89;46.39
75551;BME280;65071;53.082;18.218;2023-04-24T11:16:33;100043.27;;;21.62;47.25
75551;BME280;65071;53.082;18.218;2023-04-24T11:21:40;100046.61;;;21.70;47.17
75551;BME280;65071;53.082;18.218;2023-04-24T11:27:13;100046.61;;;21.67;46.97
75551;BME280;65071;53.082;18.218;2023-04-24T11:37:40;100047.35;;;22.01;46.67
75551;BME280;65071;53.082;18.218;2023-04-24T11:40:10;100038.33;;;22.03;46.35
75551;BME280;65071;53.082;18.218;2023-04-24T11:42:39;100043.96;;;21.91;46.04
75551;BME280;65071;53.082;18.218;2023-04-24T11:45:15;100042.89;;;21.87;46.05
75551;BME280;65071;53.082;18.218;2023-04-24T11:47:43;100047.02;;;21.85;46.48
75551;BME280;65071;53.082;18.218;2023-04-24T11:50:13;100042.56;;;21.85;46.84
75551;BME280;65071;53.082;18.218;2023-04-24T11:52:41;100043.77;;;21.85;46.78
75551;BME280;65071;53.082;18.218;2023-04-24T11:55:23;100043.11;;;21.78;46.85
75551;BME280;65071;53.082;18.218;2023-04-24T11:57:56;100045.55;;;21.79;47.58
75551;BME280;65071;53.082;18.218;2023-04-24T12:00:26;100043.59;;;21.83;47.76
75551;BME280;65071;53.082;18.218;2023-04-24T12:03:10;100042.77;;;21.84;47.68
75551;BME280;65071;53.082;18.218;2023-04-24T12:05:39;100038.73;;;21.90;47.81
75551;BME280;65071;53.082;18.218;2023-04-24T12:08:06;100034.27;;;21.99;47.52
75551;BME280;65071;53.082;18.218;2023-04-24T12:10:33;100029.73;;;22.00;47.30
75551;BME280;65071;53.082;18.218;2023-04-24T12:13:01;100025.45;;;21.97;47.24
75551;BME280;65071;53.082;18.218;2023-04-24T12:15:28;100020.73;;;22.00;47.71
75551;BME280;65071;53.082;18.218;2023-04-24T12:17:55;100021.58;;;22.04;47.01
75551;BME280;65071;53.082;18.218;2023-04-24T12:20:30;100016.70;;;22.07;46.95
75551;BME280;65071;53.082;18.218;2023-04-24T12:23:00;100012.68;;;22.10;46.96
75551;BME280;65071;53.082;18.218;2023-04-24T12:25:31;100008.05;;;22.20;46.94
75551;BME280;65071;53.082;18.218;2023-04-24T12:30:33;100001.02;;;22.24;46.19
75551;BME280;65071;53.082;18.218;2023-04-24T12:33:00;100001.10;;;22.31;45.70
75551;BME280;65071;53.082;18.218;2023-04-24T12:35:30;99999.58;;;22.39;45.48
75551;BME280;65071;53.082;18.218;2023-04-24T12:38:11;100004.44;;;22.42;43.98
75551;BME280;65071;53.082;18.218;2023-04-24T12:40:40;100000.34;;;22.37;43.12
75551;BME280;65071;53.082;18.218;2023-04-24T12:43:19;99999.66;;;22.43;43.55
75551;BME280;65071;53.082;18.218;2023-04-24T12:45:47;99994.94;;;22.56;43.58
75551;BME280;65071;53.082;18.218;2023-04-24T12:48:14;99993.07;;;22.67;43.63
75551;BME280;65071;53.082;18.218;2023-04-24T12:50:41;99987.61;;;22.69;42.88
75551;BME280;65071;53.082;18.218;2023-04-24T12:53:08;99983.86;;;22.70;41.96
75551;BME280;65071;53.082;18.218;2023-04-24T12:55:37;99977.90;;;22.74;41.54
75551;BME280;65071;53.082;18.218;2023-04-24T12:58:04;99974.02;;;22.86;41.72
75551;BME280;65071;53.082;18.218;2023-04-24T13:00:30;99972.20;;;22.90;40.98
75551;BME280;65071;53.082;18.218;2023-04-24T13:02:57;99971.30;;;22.93;41.43
75551;BME280;65071;53.082;18.218;2023-04-24T13:05:23;99971.73;;;22.95;41.74